Time;durP1;ratioP1;P1;durP2;ratioP2;P2;SDS_P1;SDS_P2;PMS_P1;PMS_P2;Temp;Humidity;BMP_temperature;BMP_pressure;BME280_temperature;BME280_humidity;BME280_pressure;Samples;Min_cycle;Max_cycle;Signal;HPM_P1;HPM_P2
2023/09/02 00:01:33;;;;;;;8.25;7.45;;;;;;;14.32;86.71;100582.13;10271718;28;20043;-76
2023/09/02 00:06:38;;;;;;;12.68;8.18;;;;;;;14.36;86.71;100586.22;10270156;28;20395;-76
2023/09/02 00:11:41;;;;;;;10.32;9.02;;;;;;;14.43;87.16;100563.06;10270947;28;20038;-76
2023/09/02 00:16:43;;;;;;;8.88;7.97;;;;;;;14.48;87.01;100584.25;10273874;28;20046;-76
2023/09/02 00:21:48;;;;;;;33.17;8.18;;;;;;;14.20;87.32;100581.41;10275077;28;20051;-76
2023/09/02 00:26:50;;;;;;;8.15;7.35;;;;;;;14.13;87.88;100582.97;10270508;28;20134;-76
2023/09/02 00:31:53;;;;;;;14.52;9.10;;;;;;;14.15;88.20;100591.78;10253423;28;20502;-76
2023/09/02 00:36:58;;;;;;;27.13;9.75;;;;;;;14.09;88.48;100590.50;10270670;28;20142;-76
2023/09/02 00:42:02;;;;;;;11.43;8.18;;;;;;;14.20;88.85;100592.19;10257059;28;20498;-76
2023/09/02 00:47:05;;;;;;;42.00;10.20;;;;;;;14.37;88.67;100602.31;10262946;28;20098;-76
2023/09/02 00:52:09;;;;;;;26.85;11.38;;;;;;;14.46;88.74;100603.31;10272512;28;20042;-76
2023/09/02 00:57:12;;;;;;;16.60;11.07;;;;;;;14.57;89.21;100602.31;10272521;28;20065;-75
2023/09/02 01:02:15;;;;;;;12.55;10.07;;;;;;;14.68;88.74;100607.56;10268886;28;20122;-75
2023/09/02 01:07:20;;;;;;;10.57;9.48;;;;;;;14.78;88.78;100610.22;10260977;28;20050;-75
2023/09/02 01:12:23;;;;;;;10.85;8.80;;;;;;;14.82;88.61;100608.94;10255115;28;20046;-75
2023/09/02 01:17:25;;;;;;;10.32;8.65;;;;;;;14.89;87.96;100617.31;10253489;28;20451;-75
2023/09/02 01:22:59;;;;;;;10.30;8.57;;;;;;;14.89;88.12;100628.13;10254905;28;20043;-75
2023/09/02 01:28:08;;;;;;;9.07;8.07;;;;;;;14.94;88.21;100623.97;10271286;28;20058;-75
2023/09/02 01:33:12;;;;;;;10.02;8.25;;;;;;;14.95;87.71;100622.16;10273587;28;20038;-76
2023/09/02 01:38:16;;;;;;;8.00;7.20;;;;;;;14.94;87.46;100628.53;10274269;28;20046;-76
2023/09/02 01:43:21;;;;;;;14.05;8.73;;;;;;;14.91;87.53;100632.38;10271762;28;20257;-76
2023/09/02 01:48:26;;;;;;;13.45;8.40;;;;;;;14.91;87.20;100631.53;10271941;28;20058;-76
2023/09/02 01:53:29;;;;;;;11.50;8.57;;;;;;;14.91;87.20;100626.97;10253407;28;20055;-76
2023/09/02 01:58:33;;;;;;;11.40;9.25;;;;;;;14.93;87.40;100632.25;10270860;28;20054;-75
2023/09/02 02:03:39;;;;;;;12.20;9.38;;;;;;;14.95;87.52;100625.69;10274000;28;20118;-75
2023/09/02 02:08:47;;;;;;;12.10;8.95;;;;;;;14.98;87.36;100629.97;10254926;28;20051;-75
2023/09/02 02:13:52;;;;;;;10.88;9.30;;;;;;;15.00;87.11;100638.75;10270465;28;20050;-75
2023/09/02 02:18:55;;;;;;;11.80;9.13;;;;;;;15.00;87.62;100644.16;10273637;28;20506;-75
2023/09/02 02:23:58;;;;;;;12.18;8.75;;;;;;;15.06;87.44;100646.31;10271476;28;20051;-76
2023/09/02 02:29:02;;;;;;;12.98;9.55;;;;;;;15.01;87.55;100638.63;10270785;28;20510;-76
2023/09/02 02:34:05;;;;;;;10.50;9.38;;;;;;;14.93;88.35;100635.81;10272565;28;20049;-76
2023/09/02 02:39:08;;;;;;;10.35;8.40;;;;;;;14.92;88.86;100635.94;10272749;28;20035;-77
2023/09/02 02:44:13;;;;;;;11.15;8.02;;;;;;;14.86;89.62;100633.81;10274707;28;20492;-76
2023/09/02 02:49:16;;;;;;;13.10;8.48;;;;;;;14.85;89.50;100638.38;10260476;28;20070;-76
2023/09/02 02:54:18;;;;;;;10.73;8.30;;;;;;;14.80;90.26;100638.81;10275710;28;20047;-74
2023/09/02 02:59:23;;;;;;;10.60;9.00;;;;;;;14.81;90.46;100645.94;10279017;28;20043;-76
2023/09/02 03:04:26;;;;;;;10.50;8.70;;;;;;;14.89;90.77;100644.34;10277745;28;20046;-76
2023/09/02 03:09:29;;;;;;;13.82;11.05;;;;;;;14.89;90.54;100645.22;10280121;28;20098;-76
2023/09/02 03:14:34;;;;;;;13.68;10.93;;;;;;;14.89;90.51;100653.34;10277498;28;20043;-76
2023/09/02 03:19:38;;;;;;;14.15;11.48;;;;;;;14.90;90.63;100637.97;10261438;28;20039;-76
2023/09/02 03:24:42;;;;;;;15.15;10.98;;;;;;;14.88;90.63;100648.91;10277947;28;20035;-76
2023/09/02 03:29:49;;;;;;;16.02;11.60;;;;;;;14.87;90.95;100654.47;10276218;28;20134;-76
2023/09/02 03:34:54;;;;;;;13.25;10.70;;;;;;;14.86;90.93;100660.88;10276168;28;20047;-76
2023/09/02 03:39:57;;;;;;;14.30;11.77;;;;;;;14.88;90.97;100654.31;10258248;28;20051;-77
2023/09/02 03:45:02;;;;;;;17.10;12.55;;;;;;;14.95;90.86;100650.03;10275492;28;20485;-76
2023/09/02 03:50:07;;;;;;;17.70;12.13;;;;;;;14.98;90.98;100660.56;10273990;28;20514;-76
2023/09/02 03:55:10;;;;;;;16.38;12.63;;;;;;;14.96;90.83;100649.03;10258248;28;20509;-75
2023/09/02 04:00:17;;;;;;;22.80;14.50;;;;;;;15.02;91.34;100653.00;10274734;28;20042;-75
2023/09/02 04:05:19;;;;;;;26.42;16.02;;;;;;;15.06;91.14;100667.97;10275289;28;20051;-76
2023/09/02 04:10:22;;;;;;;26.05;15.77;;;;;;;15.06;91.40;100673.38;10272981;28;20411;-76
2023/09/02 04:15:27;;;;;;;20.83;14.13;;;;;;;15.08;91.50;100668.63;10272621;28;20047;-76
2023/09/02 04:20:35;;;;;;;24.10;14.50;;;;;;;15.07;91.42;100660.69;10253347;28;20042;-76
2023/09/02 04:25:47;;;;;;;22.83;14.50;;;;;;;15.03;91.78;100663.69;10271018;28;20043;-76
2023/09/02 04:30:55;;;;;;;22.75;14.35;;;;;;;15.01;91.59;100668.38;10255623;28;20043;-76
2023/09/02 04:36:01;;;;;;;19.95;13.90;;;;;;;14.95;91.50;100668.97;10254255;28;20050;-75
2023/09/02 04:41:07;;;;;;;23.65;14.82;;;;;;;14.95;91.67;100687.06;10253973;28;20486;-76
2023/09/02 04:46:11;;;;;;;24.95;13.90;;;;;;;14.97;91.71;100688.59;10268515;28;20450;-76
2023/09/02 04:51:17;;;;;;;25.42;13.68;;;;;;;15.01;91.66;100691.88;10252950;28;20104;-76
2023/09/02 04:56:20;;;;;;;20.83;12.82;;;;;;;15.00;91.96;100696.44;10253927;28;20051;-76
2023/09/02 05:01:25;;;;;;;21.42;12.68;;;;;;;15.08;91.84;100694.84;10265498;28;20133;-76
2023/09/02 05:06:31;;;;;;;25.48;14.18;;;;;;;15.09;91.77;100700.13;10264293;28;20047;-76
2023/09/02 05:11:34;;;;;;;24.40;13.98;;;;;;;15.12;91.76;100704.41;10246245;28;20043;-76
2023/09/02 05:16:39;;;;;;;22.65;12.88;;;;;;;15.21;91.97;100719.75;10266100;28;20079;-76
2023/09/02 05:21:42;;;;;;;24.42;13.88;;;;;;;15.24;91.54;100728.41;10264333;28;20035;-76
2023/09/02 05:26:45;;;;;;;21.15;12.45;;;;;;;15.29;91.76;100733.41;10267066;28;20043;-76
2023/09/02 05:31:52;;;;;;;22.65;12.85;;;;;;;15.35;91.49;100735.53;10262894;28;20456;-76
2023/09/02 05:36:55;;;;;;;20.10;12.60;;;;;;;15.41;91.46;100734.97;10264245;28;20548;-76
2023/09/02 05:41:58;;;;;;;21.38;13.98;;;;;;;15.39;90.99;100722.59;10269355;28;20047;-76
2023/09/02 05:47:03;;;;;;;23.40;13.88;;;;;;;15.38;90.83;100728.97;10267979;28;20509;-76
2023/09/02 05:52:06;;;;;;;24.90;14.32;;;;;;;15.49;91.06;100734.22;10263097;28;20637;-76
2023/09/02 05:57:09;;;;;;;28.30;14.07;;;;;;;15.60;90.84;100742.16;10264103;28;20477;-75
2023/09/02 06:02:13;;;;;;;26.95;14.57;;;;;;;15.68;90.24;100738.69;10263129;28;20042;-75
2023/09/02 06:07:16;;;;;;;29.35;15.20;;;;;;;15.72;89.83;100750.09;10263443;28;20055;-75
2023/09/02 06:12:19;;;;;;;31.10;16.33;;;;;;;15.77;89.23;100745.06;10264312;28;20130;-75
2023/09/02 06:17:23;;;;;;;6.28;4.57;;;;;;;15.76;89.17;100754.22;10266977;28;20047;-75
2023/09/02 06:22:26;;;;;;;25.67;12.90;;;;;;;16.04;88.22;100755.06;10265074;28;20035;-76
2023/09/02 06:27:31;;;;;;;36.22;17.85;;;;;;;15.70;87.62;100745.66;10273119;28;20043;-76
2023/09/02 06:32:35;;;;;;;40.10;18.50;;;;;;;15.92;87.07;100752.56;10275229;28;20030;-76
2023/09/02 06:37:38;;;;;;;39.38;18.25;;;;;;;15.97;86.82;100756.69;10278247;28;20570;-76
2023/09/02 06:42:41;;;;;;;41.30;19.55;;;;;;;16.17;86.10;100765.56;10271477;28;20042;-75
2023/09/02 06:47:45;;;;;;;38.35;19.25;;;;;;;16.23;84.89;100754.94;10271955;28;20039;-76
2023/09/02 06:52:48;;;;;;;32.28;17.80;;;;;;;16.15;84.45;100758.44;10272890;28;20047;-76
2023/09/02 06:57:51;;;;;;;32.72;18.17;;;;;;;16.43;83.71;100771.09;10273510;28;20126;-76
2023/09/02 07:02:55;;;;;;;30.40;16.52;;;;;;;16.45;83.11;100783.50;10274313;28;20047;-76
2023/09/02 07:07:59;;;;;;;30.83;17.15;;;;;;;16.50;82.38;100788.50;10273051;28;20059;-76
2023/09/02 07:13:03;;;;;;;28.98;15.85;;;;;;;16.52;82.55;100792.75;10269730;28;20042;-75
2023/09/02 07:18:07;;;;;;;27.40;17.20;;;;;;;16.93;81.58;100785.00;10273419;28;20075;-75
2023/09/02 07:23:10;;;;;;;23.98;14.40;;;;;;;16.78;80.28;100801.00;10275719;28;20498;-76
2023/09/02 07:28:13;;;;;;;24.58;14.82;;;;;;;16.73;80.86;100806.03;10275559;28;20578;-76
2023/09/02 07:33:17;;;;;;;24.27;14.73;;;;;;;16.66;81.15;100813.06;10270911;28;20434;-77
2023/09/02 07:38:20;;;;;;;23.88;14.05;;;;;;;16.79;81.11;100820.84;10268046;28;20146;-76
2023/09/02 07:43:23;;;;;;;29.50;15.45;;;;;;;16.81;80.74;100832.34;10272330;28;20043;-75
2023/09/02 07:48:27;;;;;;;23.73;15.15;;;;;;;16.83;80.87;100832.22;10275366;28;20491;-75
2023/09/02 07:53:30;;;;;;;24.42;14.48;;;;;;;16.66;81.00;100845.63;10270351;28;20038;-75
2023/09/02 07:58:33;;;;;;;23.52;14.77;;;;;;;16.65;81.46;100854.75;10274389;28;20050;-76
2023/09/02 08:03:37;;;;;;;21.17;14.13;;;;;;;16.78;81.53;100873.38;10270246;28;20050;-76
2023/09/02 08:08:40;;;;;;;24.60;14.45;;;;;;;16.52;82.61;100882.25;10275389;28;20707;-76
2023/09/02 08:13:43;;;;;;;21.65;14.27;;;;;;;16.73;82.89;100868.41;10272593;28;20505;-76
2023/09/02 08:18:47;;;;;;;23.40;14.00;;;;;;;17.21;81.47;100864.50;10272604;28;20109;-76
2023/09/02 08:23:50;;;;;;;19.48;12.88;;;;;;;17.60;78.49;100880.41;10272405;28;20118;-75
2023/09/02 08:28:53;;;;;;;18.83;13.25;;;;;;;17.80;77.80;100872.94;10267935;28;20055;-75
2023/09/02 08:33:57;;;;;;;17.45;11.63;;;;;;;17.97;76.78;100883.91;10272179;28;20045;-75
2023/09/02 08:39:00;;;;;;;15.50;11.50;;;;;;;17.81;76.89;100892.81;10271572;28;20053;-75
2023/09/02 08:44:03;;;;;;;17.73;11.43;;;;;;;17.87;76.47;100897.59;10274107;28;20045;-75
2023/09/02 08:49:08;;;;;;;23.25;13.48;;;;;;;17.84;76.21;100898.78;10269329;28;20038;-76
2023/09/02 08:54:12;;;;;;;16.42;12.40;;;;;;;17.92;76.07;100887.94;10266377;28;20118;-76
2023/09/02 08:59:15;;;;;;;18.75;12.57;;;;;;;17.89;76.07;100901.88;10271100;28;20557;-75
2023/09/02 09:04:20;;;;;;;15.57;11.32;;;;;;;18.05;75.71;100903.88;10268305;28;20762;-75
2023/09/02 09:09:23;;;;;;;17.42;11.55;;;;;;;18.51;74.74;100901.72;10272939;28;20043;-75
2023/09/02 09:14:30;;;;;;;15.93;11.00;;;;;;;19.04;72.15;100902.41;10269127;28;20506;-75
2023/09/02 09:19:34;;;;;;;15.05;10.45;;;;;;;18.93;71.63;100924.53;10266013;28;20505;-75
2023/09/02 09:24:37;;;;;;;17.98;12.50;;;;;;;18.68;72.36;100921.69;10267294;28;20038;-75
2023/09/02 09:29:41;;;;;;;19.02;13.25;;;;;;;18.73;73.42;100929.34;10254341;28;20092;-76
2023/09/02 09:34:46;;;;;;;18.98;13.98;;;;;;;19.43;71.25;100935.31;10264954;28;20037;-76
2023/09/02 09:39:51;;;;;;;17.45;13.30;;;;;;;20.01;68.04;100935.31;10268298;28;20129;-76
2023/09/02 09:44:55;;;;;;;18.95;12.70;;;;;;;21.40;64.19;100941.06;10266103;28;20055;-76
2023/09/02 09:50:14;;;;;;;16.10;12.40;;;;;;;21.68;62.22;100930.41;10268172;28;20054;-75
2023/09/02 09:55:24;;;;;;;14.25;11.02;;;;;;;22.75;61.38;100921.94;10273602;28;20035;-76
2023/09/02 10:00:28;;;;;;;12.90;10.85;;;;;;;23.15;59.83;100910.63;10279227;28;20115;-75
2023/09/02 10:05:36;;;;;;;12.98;10.98;;;;;;;23.41;56.51;100918.25;10276614;28;20053;-76
2023/09/02 10:10:40;;;;;;;9.75;8.75;;;;;;;23.34;57.55;100920.09;10276250;28;20047;-75
2023/09/02 10:15:43;;;;;;;9.95;8.48;;;;;;;23.00;57.46;100916.13;10274908;28;20164;-76
2023/09/02 10:20:48;;;;;;;11.07;9.98;;;;;;;22.26;59.53;100914.31;10280195;28;20130;-75
2023/09/02 10:25:57;;;;;;;9.75;8.73;;;;;;;21.38;61.24;100931.34;10272616;28;20042;-75
2023/09/02 10:31:03;;;;;;;10.65;8.77;;;;;;;21.55;62.45;100935.63;10272461;28;20094;-77
2023/09/02 10:36:08;;;;;;;14.25;9.32;;;;;;;21.67;61.34;100933.34;10272552;28;20093;-76
2023/09/02 10:41:13;;;;;;;11.20;9.48;;;;;;;22.03;61.38;100932.69;10272156;28;20047;-76
2023/09/02 10:46:17;;;;;;;11.52;9.30;;;;;;;22.05;61.17;100936.06;10273544;28;20039;-75
2023/09/02 10:51:22;;;;;;;13.82;9.68;;;;;;;22.68;60.08;100945.66;10272163;28;20071;-75
2023/09/02 10:56:26;;;;;;;12.48;10.45;;;;;;;23.23;56.96;100940.66;10252988;28;20043;-75
2023/09/02 11:01:42;;;;;;;12.20;9.38;;;;;;;23.59;57.77;100942.50;10266344;28;20525;-75
2023/09/02 11:07:29;;;;;;;12.88;10.02;;;;;;;24.00;55.69;100950.03;10270578;28;20075;-75
2023/09/02 11:12:33;;;;;;;12.30;8.77;;;;;;;24.45;55.45;100947.81;10273086;28;20042;-75
2023/09/02 11:17:37;;;;;;;10.80;9.13;;;;;;;23.98;56.05;100943.91;10273709;28;20039;-75
2023/09/02 11:22:55;;;;;;;12.30;9.57;;;;;;;23.11;58.41;100940.28;10269824;28;20441;-75
2023/09/02 11:28:00;;;;;;;10.00;8.98;;;;;;;22.76;58.69;100947.44;10266432;28;20051;-75
2023/09/02 11:33:05;;;;;;;12.55;10.35;;;;;;;22.55;60.08;100949.06;10269769;28;20471;-75
2023/09/02 11:38:19;;;;;;;10.68;8.13;;;;;;;23.05;59.40;100951.16;10273820;28;20059;-75
2023/09/02 11:43:22;;;;;;;11.98;9.68;;;;;;;22.62;59.79;100957.34;10268113;28;20047;-76
2023/09/02 11:48:26;;;;;;;9.48;8.40;;;;;;;23.36;58.78;100959.97;10269811;28;20494;-76
2023/09/02 11:53:31;;;;;;;9.85;8.65;;;;;;;23.75;56.53;100953.19;10264940;28;20039;-76
2023/09/02 11:58:34;;;;;;;9.00;7.68;;;;;;;24.23;55.05;100960.75;10264873;28;20039;-76
2023/09/02 12:03:40;;;;;;;11.50;9.98;;;;;;;25.22;52.35;100954.94;10270512;28;20565;-76
2023/09/02 12:08:44;;;;;;;10.50;8.40;;;;;;;25.81;50.00;100947.88;10267049;28;20685;-76
2023/09/02 12:13:47;;;;;;;12.93;10.68;;;;;;;24.19;53.73;100954.81;10266554;28;20042;-76
2023/09/02 12:18:50;;;;;;;11.40;8.57;;;;;;;24.45;52.83;100942.34;10260587;28;20398;-76
2023/09/02 12:23:54;;;;;;;9.60;8.27;;;;;;;24.45;53.26;100943.19;10264498;28;20142;-76
2023/09/02 12:28:57;;;;;;;8.35;7.45;;;;;;;24.21;53.92;100949.97;10272793;28;20103;-76
2023/09/02 12:34:19;;;;;;;8.05;7.25;;;;;;;24.21;55.48;100941.72;10261164;28;20417;-76
2023/09/02 12:39:24;;;;;;;8.38;7.43;;;;;;;24.22;53.55;100939.84;10266090;28;20130;-76
2023/09/02 12:44:27;;;;;;;8.75;7.68;;;;;;;25.13;53.15;100943.28;10261329;28;20037;-76
2023/09/02 12:49:32;;;;;;;8.43;7.35;;;;;;;26.69;50.25;100934.56;10263293;28;20561;-76
2023/09/02 12:54:36;;;;;;;8.45;7.35;;;;;;;25.58;50.51;100931.72;10264900;28;20039;-76
2023/09/02 12:59:39;;;;;;;8.20;7.35;;;;;;;25.28;53.44;100937.59;10271817;28;20134;-76
2023/09/02 13:04:42;;;;;;;8.90;7.53;;;;;;;24.61;53.93;100938.41;10262961;28;20047;-76
2023/09/02 13:09:47;;;;;;;7.90;7.18;;;;;;;23.88;55.58;100942.31;10264728;28;20047;-76
2023/09/02 13:14:50;;;;;;;7.97;7.00;;;;;;;23.53;58.37;100946.88;10269471;28;20069;-76
2023/09/02 13:19:53;;;;;;;8.35;7.55;;;;;;;23.51;58.29;100953.59;10263044;28;20039;-76
2023/09/02 13:24:57;;;;;;;8.40;7.47;;;;;;;24.07;57.38;100946.28;10263215;28;20049;-76
2023/09/02 13:30:00;;;;;;;15.25;8.95;;;;;;;23.75;54.97;100947.69;10256341;28;20509;-76
2023/09/02 13:35:14;;;;;;;8.90;7.70;;;;;;;23.62;55.58;100937.44;10263477;28;20043;-76
2023/09/02 13:40:37;;;;;;;8.88;7.93;;;;;;;24.47;53.76;100940.25;10263879;28;20486;-76
2023/09/02 13:45:40;;;;;;;8.10;7.22;;;;;;;25.02;52.35;100943.00;10267067;28;20414;-76
2023/09/02 13:50:45;;;;;;;7.60;6.88;;;;;;;24.70;55.19;100946.25;10260749;28;20075;-77
2023/09/02 13:55:51;;;;;;;9.05;8.15;;;;;;;24.37;54.73;100946.06;10265252;28;20043;-76
2023/09/02 14:00:53;;;;;;;8.05;7.25;;;;;;;23.76;56.15;100951.28;10260817;28;20064;-77
2023/09/02 14:06:01;;;;;;;7.45;6.75;;;;;;;24.03;52.71;100947.75;10261279;28;20094;-76
2023/09/02 14:11:05;;;;;;;6.75;6.22;;;;;;;23.86;53.47;100938.97;10263950;28;20441;-76
2023/09/02 14:16:09;;;;;;;6.57;5.97;;;;;;;24.40;52.65;100934.69;10260022;28;20054;-76
2023/09/02 14:21:12;;;;;;;6.57;5.55;;;;;;;24.87;50.55;100941.25;10258180;28;20477;-76
2023/09/02 14:26:16;;;;;;;6.65;5.88;;;;;;;25.59;50.50;100936.19;10266247;28;20510;-76
2023/09/02 14:31:20;;;;;;;6.35;5.72;;;;;;;25.32;49.87;100929.81;10262873;28;20043;-76
2023/09/02 14:36:23;;;;;;;7.40;6.03;;;;;;;24.05;53.22;100934.66;10266310;28;20067;-77
2023/09/02 14:41:27;;;;;;;7.30;6.60;;;;;;;24.72;52.18;100929.59;10269393;28;20049;-77
2023/09/02 14:46:30;;;;;;;8.68;7.72;;;;;;;25.57;51.17;100936.38;10264451;28;20050;-76
2023/09/02 14:51:33;;;;;;;8.57;7.70;;;;;;;24.43;53.35;100939.78;10267734;28;20043;-76
2023/09/02 14:56:43;;;;;;;8.75;7.85;;;;;;;24.49;53.37;100936.25;10271450;28;20061;-75
2023/09/02 15:01:46;;;;;;;8.55;7.75;;;;;;;26.29;49.93;100931.09;10270510;28;20450;-76
2023/09/02 15:06:51;;;;;;;9.43;7.97;;;;;;;26.76;49.79;100923.50;10247550;28;20418;-76
2023/09/02 15:11:56;;;;;;;9.05;7.43;;;;;;;27.00;48.26;100929.38;10264171;28;20513;-76
2023/09/02 15:17:00;;;;;;;12.65;8.05;;;;;;;26.39;50.79;100944.44;10267072;28;20537;-76
2023/09/02 15:22:03;;;;;;;8.45;7.13;;;;;;;26.39;47.96;100938.91;10266390;28;20051;-76
2023/09/02 15:27:07;;;;;;;9.13;8.25;;;;;;;24.95;51.86;100946.56;10266778;28;20043;-75
2023/09/02 15:32:11;;;;;;;8.30;7.50;;;;;;;24.66;54.00;100955.97;10258216;28;20039;-75
2023/09/02 15:37:17;;;;;;;9.63;7.00;;;;;;;24.51;55.25;100961.56;10265930;28;20043;-76
2023/09/02 15:42:22;;;;;;;9.48;8.57;;;;;;;24.34;55.01;100960.19;10265189;28;20047;-75
2023/09/02 15:47:25;;;;;;;9.23;8.35;;;;;;;23.88;56.92;100971.66;10262084;28;20146;-75
2023/09/02 15:52:28;;;;;;;10.18;9.15;;;;;;;23.36;58.08;100968.19;10261102;28;20043;-75
2023/09/02 15:57:32;;;;;;;9.52;8.63;;;;;;;23.39;59.68;100965.06;10259733;28;20035;-75
2023/09/02 16:02:35;;;;;;;9.98;8.98;;;;;;;23.34;58.34;100973.03;10267749;28;20410;-75
2023/09/02 16:07:38;;;;;;;11.25;10.15;;;;;;;23.33;59.60;100975.97;10263256;28;20121;-75
2023/09/02 16:12:42;;;;;;;10.98;9.90;;;;;;;23.24;59.46;100977.97;10264731;28;20097;-75
2023/09/02 16:17:45;;;;;;;11.48;10.38;;;;;;;23.41;58.62;100979.41;10256897;28;20039;-75
2023/09/02 16:22:48;;;;;;;9.85;9.05;;;;;;;23.10;58.97;100981.56;10258596;28;20126;-75
2023/09/02 16:27:52;;;;;;;9.85;8.85;;;;;;;23.27;59.96;100990.44;10265004;28;20066;-76
2023/09/02 16:32:56;;;;;;;12.30;9.57;;;;;;;23.15;59.27;100992.84;10265032;28;20047;-76
2023/09/02 16:37:59;;;;;;;9.88;8.98;;;;;;;22.97;59.03;100996.78;10262100;28;20035;-76
2023/09/02 16:43:04;;;;;;;11.77;8.57;;;;;;;22.88;59.02;100999.84;10258973;28;20042;-74
2023/09/02 16:48:08;;;;;;;10.32;9.20;;;;;;;22.96;59.07;101003.31;10260451;28;20035;-76
2023/09/02 16:53:15;;;;;;;10.45;9.07;;;;;;;23.51;57.01;101005.69;10269361;28;20494;-76
2023/09/02 16:58:20;;;;;;;10.45;9.45;;;;;;;23.56;55.97;101006.78;10264755;28;20047;-76
2023/09/02 17:03:23;;;;;;;9.73;8.80;;;;;;;23.36;57.38;101012.03;10264177;28;20058;-76
2023/09/02 17:08:26;;;;;;;9.85;8.52;;;;;;;22.90;58.55;101008.69;10264080;28;20031;-76
2023/09/02 17:13:30;;;;;;;9.38;8.40;;;;;;;22.50;60.13;101014.47;10265159;28;20153;-74
2023/09/02 17:18:33;;;;;;;10.30;8.35;;;;;;;22.18;61.00;101023.00;10270861;28;20047;-76
2023/09/02 17:23:38;;;;;;;9.00;8.10;;;;;;;21.68;62.93;101017.91;10268487;28;20058;-77
2023/09/02 17:28:48;;;;;;;10.52;8.70;;;;;;;21.22;64.00;101022.47;10266929;28;20043;-76
2023/09/02 17:33:51;;;;;;;9.10;8.07;;;;;;;20.87;65.27;101030.13;10263501;28;20038;-76
2023/09/02 17:38:54;;;;;;;10.57;7.80;;;;;;;20.54;65.83;101037.53;10268518;28;20062;-77
2023/09/02 17:43:58;;;;;;;9.80;8.48;;;;;;;20.30;67.13;101036.53;10268454;28;20054;-76
2023/09/02 17:49:01;;;;;;;13.70;9.73;;;;;;;20.06;67.62;101042.00;10270037;28;20390;-76
2023/09/02 17:54:04;;;;;;;12.27;9.48;;;;;;;19.92;68.36;101067.22;10270077;28;20402;-76
2023/09/02 17:59:08;;;;;;;11.20;8.43;;;;;;;19.75;68.80;101080.84;10251666;28;20137;-76
2023/09/02 18:04:11;;;;;;;13.73;10.60;;;;;;;19.61;69.19;101073.28;10269667;28;20085;-76
2023/09/02 18:09:14;;;;;;;14.13;10.15;;;;;;;19.47;69.26;101085.66;10272337;28;20047;-76
2023/09/02 18:14:18;;;;;;;13.50;10.07;;;;;;;19.33;69.39;101102.66;10273514;28;20043;-76
2023/09/02 18:19:21;;;;;;;12.23;9.43;;;;;;;19.28;69.71;101110.44;10279585;28;20042;-76
2023/09/02 18:24:24;;;;;;;14.80;10.88;;;;;;;19.14;69.79;101115.53;10277379;28;20047;-75
2023/09/02 18:29:29;;;;;;;11.40;9.85;;;;;;;19.08;70.08;101127.03;10276348;28;20051;-74
2023/09/02 18:34:32;;;;;;;17.13;12.60;;;;;;;19.06;70.36;101130.94;10280016;28;20106;-76
2023/09/02 18:39:35;;;;;;;14.32;10.60;;;;;;;19.01;70.35;101129.56;10280721;28;20043;-76
2023/09/02 18:44:39;;;;;;;11.68;9.13;;;;;;;18.92;70.61;101129.69;10277789;28;20077;-76
2023/09/02 18:49:42;;;;;;;15.85;12.10;;;;;;;18.88;71.13;101137.31;10276847;28;20046;-74
2023/09/02 18:54:45;;;;;;;15.30;13.13;;;;;;;18.96;70.82;101141.97;10276624;28;20065;-75
2023/09/02 18:59:49;;;;;;;14.75;11.20;;;;;;;18.98;70.93;101148.13;10283222;28;20043;-75
2023/09/02 19:04:52;;;;;;;12.00;10.18;;;;;;;18.92;71.25;101154.19;10279187;28;20493;-75
2023/09/02 19:09:55;;;;;;;13.00;8.70;;;;;;;18.84;71.44;101159.56;10279479;28;20051;-75
2023/09/02 19:14:59;;;;;;;9.88;6.93;;;;;;;18.77;72.05;101157.47;10274442;28;20046;-75
2023/09/02 19:20:06;;;;;;;16.75;7.43;;;;;;;18.67;72.26;101156.69;10279063;28;20137;-75
2023/09/02 19:25:12;;;;;;;11.93;7.82;;;;;;;18.60;72.53;101152.06;10280633;28;20043;-77
2023/09/02 19:30:16;;;;;;;13.52;7.28;;;;;;;18.42;72.97;101152.94;10260952;28;20162;-76
2023/09/02 19:35:19;;;;;;;10.90;9.73;;;;;;;18.15;73.89;101148.44;10278546;28;20461;-76
2023/09/02 19:40:23;;;;;;;13.02;10.35;;;;;;;17.95;74.81;101149.59;10280831;28;20425;-76
2023/09/02 19:45:27;;;;;;;13.50;9.52;;;;;;;17.95;75.37;101144.13;10276769;28;20039;-76
2023/09/02 19:50:30;;;;;;;13.40;8.70;;;;;;;18.02;75.21;101143.41;10280821;28;20050;-76
2023/09/02 19:55:33;;;;;;;11.55;9.27;;;;;;;17.90;75.01;101148.16;10280475;28;20047;-76
2023/09/02 20:00:41;;;;;;;12.70;9.43;;;;;;;17.69;76.20;101158.47;10276287;28;20053;-75
2023/09/02 20:05:45;;;;;;;15.45;10.05;;;;;;;17.58;76.76;101164.97;10276686;28;20540;-76
2023/09/02 20:10:47;;;;;;;14.80;9.15;;;;;;;17.52;77.33;101173.69;10276540;28;20043;-76
2023/09/02 20:15:57;;;;;;;12.60;10.27;;;;;;;17.52;77.51;101181.84;10276547;28;20046;-75
2023/09/02 20:21:00;;;;;;;14.75;10.65;;;;;;;17.32;78.12;101189.25;10277446;28;20371;-76
2023/09/02 20:26:10;;;;;;;16.42;11.98;;;;;;;17.24;78.62;101176.41;10278711;28;20689;-75
2023/09/02 20:31:19;;;;;;;14.95;12.75;;;;;;;17.15;79.51;101192.75;10273679;28;20636;-76
2023/09/02 20:36:22;;;;;;;13.00;11.70;;;;;;;17.21;79.23;101193.00;10277823;28;20046;-76
2023/09/02 20:41:25;;;;;;;17.42;11.48;;;;;;;17.34;78.73;101194.53;10274710;28;20039;-75
2023/09/02 20:46:29;;;;;;;12.18;10.85;;;;;;;17.32;78.08;101204.69;10278090;28;20735;-75
2023/09/02 20:51:32;;;;;;;18.23;11.40;;;;;;;17.29;77.95;101207.69;10275732;28;20387;-76
2023/09/02 20:56:35;;;;;;;17.80;12.20;;;;;;;17.15;77.70;101215.31;10275778;28;20047;-76
2023/09/02 21:01:39;;;;;;;16.30;14.13;;;;;;;17.04;78.40;101210.88;10273583;28;20046;-75
2023/09/02 21:06:42;;;;;;;19.33;15.88;;;;;;;16.91;79.28;101221.19;10276049;28;20057;-75
2023/09/02 21:11:45;;;;;;;21.70;16.50;;;;;;;16.83;79.93;101229.19;10274807;28;20101;-76
2023/09/02 21:16:49;;;;;;;25.10;18.63;;;;;;;16.56;81.46;101222.66;10273992;28;20474;-75
2023/09/02 21:21:52;;;;;;;23.38;16.73;;;;;;;16.52;81.30;101237.50;10275524;28;20125;-76
2023/09/02 21:26:55;;;;;;;20.08;15.77;;;;;;;16.49;81.42;101242.38;10274108;28;20051;-76
2023/09/02 21:32:02;;;;;;;19.02;16.30;;;;;;;16.55;81.60;101245.34;10272240;28;20051;-76
2023/09/02 21:37:05;;;;;;;21.98;17.27;;;;;;;16.64;80.92;101246.34;10274031;28;20051;-76
2023/09/02 21:42:08;;;;;;;25.58;17.75;;;;;;;16.43;81.14;101243.78;10271609;28;20054;-76
2023/09/02 21:47:12;;;;;;;22.23;17.70;;;;;;;16.41;81.40;101253.06;10275916;28;20046;-75
2023/09/02 21:52:15;;;;;;;20.45;16.55;;;;;;;16.37;81.01;101260.59;10278097;28;20497;-76
2023/09/02 21:57:18;;;;;;;23.90;18.25;;;;;;;16.45;80.68;101263.47;10282175;28;20128;-76
2023/09/02 22:02:27;;;;;;;19.23;15.98;;;;;;;16.43;80.45;101256.47;10280913;28;20133;-75
2023/09/02 22:07:30;;;;;;;21.77;18.38;;;;;;;16.34;80.72;101258.19;10279370;28;20091;-75
2023/09/02 22:12:33;;;;;;;26.42;20.88;;;;;;;16.25;80.78;101256.28;10278780;28;20046;-75
2023/09/02 22:17:37;;;;;;;27.48;20.67;;;;;;;16.29;81.16;101272.16;10279218;28;20035;-75
2023/09/02 22:22:40;;;;;;;24.80;20.02;;;;;;;16.26;80.65;101282.41;10279229;28;20094;-75
2023/09/02 22:27:43;;;;;;;27.55;20.58;;;;;;;16.19;79.87;101294.81;10277656;28;20046;-75
2023/09/02 22:32:47;;;;;;;28.30;21.88;;;;;;;16.04;79.88;101299.72;10279255;28;20059;-76
2023/09/02 22:37:50;;;;;;;27.30;21.92;;;;;;;15.96;79.59;101311.25;10280446;28;20534;-76
2023/09/02 22:42:53;;;;;;;27.90;22.42;;;;;;;15.90;79.78;101315.38;10277878;28;20049;-75
2023/09/02 22:47:59;;;;;;;31.33;24.17;;;;;;;15.86;79.77;101313.09;10276812;28;20045;-76
2023/09/02 22:53:03;;;;;;;30.80;21.70;;;;;;;15.92;79.49;101310.69;10277871;28;20039;-74
2023/09/02 22:58:07;;;;;;;24.48;20.65;;;;;;;15.83;78.81;101305.25;10279364;28;20066;-75